Time;durP1;ratioP1;P1;durP2;ratioP2;P2;SDS_P1;SDS_P2;PMS_P1;PMS_P2;Temp;Humidity;BMP_temperature;BMP_pressure;BME280_temperature;BME280_humidity;BME280_pressure;Samples;Min_cycle;Max_cycle;Signal;HPM_P1;HPM_P2
2023/10/03 00:02:04;;;;;;;;;;;;;;;17.68;76.44;101354.35;106224;1259;59350;-81
2023/10/03 00:04:31;;;;;;;;;;;;;;;17.67;76.55;101350.45;106274;1263;61183;-81
2023/10/03 00:06:58;;;;;;;;;;;;;;;17.66;76.54;101345.30;105962;1259;125073;-81
2023/10/03 00:09:25;;;;;;;;;;;;;;;17.64;76.49;101349.20;106329;1264;65104;-81
2023/10/03 00:11:52;;;;;;;;;;;;;;;17.61;76.56;101348.83;106150;1261;125150;-81
2023/10/03 00:14:18;;;;;;;;;;;;;;;17.56;76.49;101344.34;106401;1259;59279;-81
2023/10/03 00:16:45;;;;;;;;;;;;;;;17.50;76.56;101337.58;106371;1262;60731;-80
2023/10/03 00:19:12;;;;;;;;;;;;;;;17.47;76.61;101336.85;106274;1263;124716;-80
2023/10/03 00:21:38;;;;;;;;;;;;;;;17.44;76.57;101334.00;106302;1260;65552;-80
2023/10/03 00:24:06;;;;;;;;;;;;;;;17.41;76.75;101333.09;106227;1263;124825;-80
2023/10/03 00:26:33;;;;;;;;;;;;;;;17.38;76.83;101324.91;106228;1265;59620;-80
2023/10/03 00:28:59;;;;;;;;;;;;;;;17.34;76.80;101318.14;106341;1258;125264;-82
2023/10/03 00:31:29;;;;;;;;;;;;;;;17.30;76.85;101312.45;106207;1273;74191;-83
2023/10/03 00:33:55;;;;;;;;;;;;;;;17.26;76.88;101307.09;106318;1259;64910;-83
2023/10/03 00:36:24;;;;;;;;;;;;;;;17.21;76.92;101303.70;106207;1266;124962;-84
2023/10/03 00:39:09;;;;;;;;;;;;;;;17.15;76.94;101300.46;106347;1260;61234;-83
2023/10/03 00:41:35;;;;;;;;;;;;;;;17.13;77.12;101303.10;106301;1264;125097;-83
2023/10/03 00:44:04;;;;;;;;;;;;;;;17.08;77.08;101310.34;106323;1265;73453;-83
2023/10/03 00:46:32;;;;;;;;;;;;;;;17.05;77.20;101307.30;106389;1260;65058;-82
2023/10/03 00:49:14;;;;;;;;;;;;;;;17.03;77.26;101302.52;106143;1264;124892;-83
2023/10/03 00:51:40;;;;;;;;;;;;;;;17.03;77.42;101297.89;106226;1261;61300;-84
2023/10/03 00:54:07;;;;;;;;;;;;;;;17.01;77.42;101297.70;106111;1267;125083;-84
2023/10/03 00:56:34;;;;;;;;;;;;;;;16.99;77.45;101302.83;106343;1267;73271;-84
2023/10/03 00:59:03;;;;;;;;;;;;;;;16.97;77.50;101306.17;106255;1264;125229;-84
2023/10/03 01:01:33;;;;;;;;;;;;;;;16.95;77.50;101306.52;106343;1264;72743;-82
2023/10/03 01:04:01;;;;;;;;;;;;;;;16.93;77.58;101301.72;106261;1265;61269;-83
2023/10/03 01:06:27;;;;;;;;;;;;;;;16.91;77.65;101293.20;106197;1261;125006;-83
2023/10/03 01:08:54;;;;;;;;;;;;;;;16.88;77.58;101284.14;106336;1260;75328;-83
2023/10/03 01:11:24;;;;;;;;;;;;;;;16.83;77.55;101281.07;106121;1263;125295;-83
2023/10/03 01:13:56;;;;;;;;;;;;;;;16.77;77.64;101287.02;106275;1265;72520;-84
2023/10/03 01:16:31;;;;;;;;;;;;;;;16.72;77.67;101278.12;106594;1260;59546;-84
2023/10/03 01:21:45;;;;;;;;;;;;;;;16.60;77.69;101265.62;106282;1260;74647;-83
2023/10/03 01:24:20;;;;;;;;;;;;;;;16.54;77.84;101264.33;106321;1260;124744;-83
2023/10/03 01:26:47;;;;;;;;;;;;;;;16.48;77.89;101258.25;106281;1260;72676;-83
2023/10/03 01:29:15;;;;;;;;;;;;;;;16.45;78.05;101254.15;106255;1261;124914;-83
2023/10/03 01:31:42;;;;;;;;;;;;;;;16.40;78.09;101251.64;106303;1261;61274;-83
2023/10/03 01:34:09;;;;;;;;;;;;;;;16.35;78.23;101257.77;106314;1258;74716;-83
2023/10/03 01:36:36;;;;;;;;;;;;;;;16.31;78.33;101259.34;106344;1263;124766;-83
2023/10/03 01:39:03;;;;;;;;;;;;;;;16.27;78.39;101260.54;106302;1261;71414;-83
2023/10/03 01:41:29;;;;;;;;;;;;;;;16.23;78.47;101263.68;106203;1261;124951;-82
2023/10/03 01:43:56;;;;;;;;;;;;;;;16.20;78.63;101265.07;106364;1263;61259;-84
2023/10/03 01:46:23;;;;;;;;;;;;;;;16.18;78.74;101261.86;106437;1263;74669;-84
2023/10/03 01:48:49;;;;;;;;;;;;;;;16.18;78.84;101255.83;106313;1261;125317;-85
2023/10/03 01:51:16;;;;;;;;;;;;;;;16.17;78.89;101251.59;106376;1264;71464;-84
2023/10/03 01:53:42;;;;;;;;;;;;;;;16.15;79.08;101244.14;106250;1263;124909;-84
2023/10/03 01:56:09;;;;;;;;;;;;;;;16.14;79.08;101237.40;106443;1259;61322;-84
2023/10/03 01:58:35;;;;;;;;;;;;;;;16.12;79.15;101232.25;106404;1261;74715;-84
2023/10/03 02:01:03;;;;;;;;;;;;;;;16.11;79.20;101226.92;106169;1263;125263;-84
2023/10/03 02:03:32;;;;;;;;;;;;;;;16.10;79.32;101227.45;106305;1268;71899;-84
2023/10/03 02:05:59;;;;;;;;;;;;;;;16.08;79.30;101222.81;106227;1260;125106;-84
2023/10/03 02:08:26;;;;;;;;;;;;;;;16.06;79.37;101220.50;106132;1261;59397;-85
2023/10/03 02:10:53;;;;;;;;;;;;;;;16.05;79.45;101215.71;106382;1262;72889;-83
2023/10/03 02:13:21;;;;;;;;;;;;;;;16.02;79.39;101213.73;106477;1261;66399;-83
2023/10/03 02:15:50;;;;;;;;;;;;;;;15.99;79.38;101212.29;106345;1260;71258;-83
2023/10/03 02:18:18;;;;;;;;;;;;;;;15.97;79.52;101205.89;105968;1264;126087;-84
2023/10/03 02:20:51;;;;;;;;;;;;;;;15.94;79.65;101207.64;106111;1260;61275;-84
2023/10/03 02:23:23;;;;;;;;;;;;;;;15.91;79.71;101204.41;106690;1260;126035;-84
2023/10/03 02:25:50;;;;;;;;;;;;;;;15.89;79.78;101194.48;106392;1261;66261;-84
2023/10/03 02:28:17;;;;;;;;;;;;;;;15.87;79.89;101184.55;106199;1261;72783;-82
2023/10/03 02:30:50;;;;;;;;;;;;;;;15.84;79.90;101180.09;106166;1263;125104;-85
2023/10/03 02:33:18;;;;;;;;;;;;;;;15.81;79.88;101174.76;106300;1261;61266;-84
2023/10/03 02:35:48;;;;;;;;;;;;;;;15.79;80.03;101175.09;106282;1263;125137;-84
2023/10/03 02:38:24;;;;;;;;;;;;;;;15.76;79.96;101169.40;106271;1263;65086;-82
2023/10/03 02:40:54;;;;;;;;;;;;;;;15.73;80.14;101172.73;106403;1261;70674;-83
2023/10/03 02:43:21;;;;;;;;;;;;;;;15.70;80.19;101176.55;106376;1264;61264;-83
2023/10/03 02:45:48;;;;;;;;;;;;;;;15.69;80.20;101172.47;106378;1261;59891;-83
2023/10/03 02:48:15;;;;;;;;;;;;;;;15.66;80.23;101174.21;106198;1260;125957;-82
2023/10/03 02:50:42;;;;;;;;;;;;;;;15.65;80.30;101170.13;106215;1268;66084;-82
2023/10/03 02:53:17;;;;;;;;;;;;;;;15.65;80.39;101164.46;106267;1260;124924;-82
2023/10/03 02:55:44;;;;;;;;;;;;;;;15.62;80.39;101162.67;106341;1264;61465;-84
2023/10/03 02:58:13;;;;;;;;;;;;;;;15.60;80.48;101163.52;106436;1259;61411;-83
2023/10/03 03:00:40;;;;;;;;;;;;;;;15.58;80.40;101165.61;106298;1260;124706;-84
2023/10/03 03:03:07;;;;;;;;;;;;;;;15.53;80.42;101158.86;106236;1264;65983;-84
2023/10/03 03:05:37;;;;;;;;;;;;;;;15.51;80.51;101152.27;106233;1259;125446;-84
2023/10/03 03:08:15;;;;;;;;;;;;;;;15.48;80.46;101144.83;106237;1266;61271;-85
2023/10/03 03:10:42;;;;;;;;;;;;;;;15.44;80.52;101142.30;106430;1264;61177;-85
2023/10/03 03:13:12;;;;;;;;;;;;;;;15.41;80.64;101136.96;106162;1265;124758;-84
2023/10/03 03:15:43;;;;;;;;;;;;;;;15.39;80.65;101135.52;106393;1261;64872;-85
2023/10/03 03:18:12;;;;;;;;;;;;;;;15.36;80.79;101137.96;106246;1264;124928;-84
2023/10/03 03:20:42;;;;;;;;;;;;;;;15.34;80.81;101132.29;106226;1260;59698;-83
2023/10/03 03:23:11;;;;;;;;;;;;;;;15.31;80.85;101126.42;106203;1264;124960;-82
2023/10/03 03:25:38;;;;;;;;;;;;;;;15.28;80.92;101120.19;106410;1261;73452;-83
2023/10/03 03:28:13;;;;;;;;;;;;;;;15.26;80.94;101112.92;106303;1260;66032;-80
2023/10/03 03:30:45;;;;;;;;;;;;;;;15.24;81.02;101112.37;106231;1263;125066;-80
2023/10/03 03:33:14;;;;;;;;;;;;;;;15.21;80.97;101103.49;106154;1259;61398;-80
2023/10/03 03:35:41;;;;;;;;;;;;;;;15.18;81.02;101099.40;106407;1261;125650;-80
2023/10/03 03:38:11;;;;;;;;;;;;;;;15.14;81.04;101092.45;106134;1261;73771;-80
2023/10/03 03:40:37;;;;;;;;;;;;;;;15.10;80.96;101088.52;106183;1261;65970;-80
2023/10/03 03:43:05;;;;;;;;;;;;;;;15.06;81.07;101088.30;106177;1261;124993;-84
2023/10/03 03:45:32;;;;;;;;;;;;;;;15.02;81.05;101085.60;106213;1261;61349;-80
2023/10/03 03:47:58;;;;;;;;;;;;;;;14.98;81.05;101086.60;106266;1260;124793;-80
2023/10/03 03:50:29;;;;;;;;;;;;;;;14.93;81.13;101089.20;106531;1260;72892;-84
2023/10/03 03:52:58;;;;;;;;;;;;;;;14.88;81.05;101091.23;106290;1260;125004;-80
2023/10/03 03:55:29;;;;;;;;;;;;;;;14.83;81.23;101091.54;106297;1260;73227;-82
2023/10/03 03:57:56;;;;;;;;;;;;;;;14.78;81.24;101086.52;106279;1261;61471;-81
2023/10/03 04:00:23;;;;;;;;;;;;;;;14.74;81.31;101082.23;106330;1260;125854;-82
2023/10/03 04:02:50;;;;;;;;;;;;;;;14.71;81.50;101077.95;106338;1263;74790;-80
2023/10/03 04:05:20;;;;;;;;;;;;;;;14.68;81.56;101074.39;106284;1261;124905;-81
2023/10/03 04:07:47;;;;;;;;;;;;;;;14.65;81.65;101073.29;106283;1259;71303;-82
2023/10/03 04:10:13;;;;;;;;;;;;;;;14.62;81.64;101068.13;106329;1260;61277;-82
2023/10/03 04:12:43;;;;;;;;;;;;;;;14.60;81.75;101066.67;106150;1266;125004;-80
2023/10/03 04:15:18;;;;;;;;;;;;;;;14.57;81.83;101070.17;106428;1260;73369;-81
2023/10/03 04:17:54;;;;;;;;;;;;;;;14.54;81.80;101068.15;106260;1260;124900;-82
2023/10/03 04:20:39;;;;;;;;;;;;;;;14.51;81.90;101069.00;106221;1259;72708;-82
2023/10/03 04:23:07;;;;;;;;;;;;;;;14.49;82.13;101066.34;106189;1260;124937;-82
2023/10/03 04:25:33;;;;;;;;;;;;;;;14.48;82.13;101067.19;106451;1260;61386;-81
2023/10/03 04:28:00;;;;;;;;;;;;;;;14.47;82.18;101057.11;106280;1260;74959;-81
2023/10/03 04:30:27;;;;;;;;;;;;;;;14.45;82.21;101058.51;106224;1259;124781;-81
2023/10/03 04:32:54;;;;;;;;;;;;;;;14.44;82.31;101055.66;106255;1264;72497;-81
2023/10/03 04:35:22;;;;;;;;;;;;;;;14.42;82.30;101047.70;105972;1260;125115;-88
2023/10/03 04:37:52;;;;;;;;;;;;;;;14.41;82.40;101045.91;106277;1260;61353;-89
2023/10/03 04:40:42;;;;;;;;;;;;;;;14.39;82.44;101043.59;106316;1259;74460;-91
2023/10/03 04:43:11;;;;;;;;;;;;;;;14.38;82.48;101047.98;106209;1260;124848;-78
2023/10/03 04:45:39;;;;;;;;;;;;;;;14.37;82.59;101046.55;106345;1264;72379;-80
2023/10/03 04:48:05;;;;;;;;;;;;;;;14.36;82.64;101042.14;106231;1259;126020;-79
2023/10/03 04:50:32;;;;;;;;;;;;;;;14.34;82.65;101042.98;106389;1259;61202;-79
2023/10/03 04:53:00;;;;;;;;;;;;;;;14.33;82.71;101044.38;106198;1260;124899;-80
2023/10/03 04:55:26;;;;;;;;;;;;;;;14.32;82.79;101044.73;106497;1263;64935;-80
2023/10/03 04:57:53;;;;;;;;;;;;;;;14.32;82.75;101039.95;106557;1259;70967;-81
2023/10/03 05:00:20;;;;;;;;;;;;;;;14.34;82.95;101038.40;106621;1260;125061;-81
2023/10/03 05:02:48;;;;;;;;;;;;;;;14.37;83.01;101035.62;106494;1259;61633;-82
2023/10/03 05:05:20;;;;;;;;;;;;;;;14.40;83.13;101034.77;106450;1261;124885;-80
2023/10/03 05:07:48;;;;;;;;;;;;;;;14.45;83.18;101029.54;108839;1258;67299;-79
2023/10/03 05:10:15;;;;;;;;;;;;;;;14.51;83.35;101028.91;108789;1259;71435;-81
2023/10/03 05:12:45;;;;;;;;;;;;;;;14.59;83.46;101028.70;108726;1259;124678;-79
2023/10/03 05:15:12;;;;;;;;;;;;;;;14.67;83.38;101029.35;108852;1258;59280;-81
2023/10/03 05:17:38;;;;;;;;;;;;;;;14.75;83.48;101026.97;107418;1260;124962;-80
2023/10/03 05:20:05;;;;;;;;;;;;;;;14.85;83.50;101019.30;106386;1259;65080;-80
2023/10/03 05:22:32;;;;;;;;;;;;;;;14.94;83.46;101014.45;106236;1257;72501;-81
2023/10/03 05:25:03;;;;;;;;;;;;;;;15.05;83.49;101008.56;106185;1258;125014;-81
2023/10/03 05:27:29;;;;;;;;;;;;;;;15.14;83.43;100998.94;106585;1259;61189;-81
2023/10/03 05:29:56;;;;;;;;;;;;;;;15.23;83.28;100992.14;106463;1259;125302;-82
2023/10/03 05:32:26;;;;;;;;;;;;;;;15.31;83.16;100982.85;106530;1261;66188;-81
2023/10/03 05:34:52;;;;;;;;;;;;;;;15.36;83.00;100981.84;106498;1259;72469;-81
2023/10/03 05:37:19;;;;;;;;;;;;;;;15.42;82.97;100981.35;106509;1265;61277;-84
2023/10/03 05:39:46;;;;;;;;;;;;;;;15.48;82.83;100982.11;106444;1260;61213;-82
2023/10/03 05:42:13;;;;;;;;;;;;;;;15.55;82.71;100979.70;106477;1260;125540;-82
2023/10/03 05:44:39;;;;;;;;;;;;;;;15.61;82.66;100976.90;106426;1261;64802;-82
2023/10/03 05:47:06;;;;;;;;;;;;;;;15.68;82.51;100974.85;106669;1260;125516;-82
2023/10/03 05:49:32;;;;;;;;;;;;;;;15.73;82.35;100972.79;106494;1260;61280;-82
2023/10/03 05:51:59;;;;;;;;;;;;;;;15.76;82.15;100969.10;106397;1262;61264;-83
2023/10/03 05:54:26;;;;;;;;;;;;;;;15.78;82.09;100967.34;106113;1260;125212;-82
2023/10/03 05:56:52;;;;;;;;;;;;;;;15.79;82.01;100965.23;106259;1259;65001;-82
2023/10/03 05:59:20;;;;;;;;;;;;;;;15.82;81.87;100968.44;106183;1259;125463;-82
2023/10/03 06:01:47;;;;;;;;;;;;;;;15.84;81.93;100973.94;106251;1259;61372;-82
2023/10/03 06:04:14;;;;;;;;;;;;;;;15.89;81.81;100980.88;106485;1258;61397;-82
2023/10/03 06:06:41;;;;;;;;;;;;;;;15.93;81.76;100983.91;106376;1259;124906;-82
2023/10/03 06:09:10;;;;;;;;;;;;;;;15.99;81.72;100979.52;106631;1260;66266;-82
2023/10/03 06:11:37;;;;;;;;;;;;;;;16.05;81.56;100976.73;106455;1259;125314;-82
2023/10/03 06:14:04;;;;;;;;;;;;;;;16.12;81.66;100972.88;106293;1259;61402;-82
2023/10/03 06:16:30;;;;;;;;;;;;;;;16.19;81.59;100968.14;106648;1259;61307;-82
2023/10/03 06:18:57;;;;;;;;;;;;;;;16.26;81.48;100958.61;106283;1263;125065;-83
2023/10/03 06:21:24;;;;;;;;;;;;;;;16.30;81.22;100960.76;106354;1259;66262;-83
2023/10/03 06:23:50;;;;;;;;;;;;;;;16.34;81.09;100959.52;106109;1264;124933;-82
2023/10/03 06:26:18;;;;;;;;;;;;;;;16.41;81.00;100952.30;106247;1266;61266;-82
2023/10/03 06:28:45;;;;;;;;;;;;;;;16.47;80.92;100948.97;106181;1259;60502;-81
2023/10/03 06:31:12;;;;;;;;;;;;;;;16.53;80.88;100944.55;106193;1259;124925;-81
2023/10/03 06:33:39;;;;;;;;;;;;;;;16.58;80.68;100942.80;106262;1259;64356;-82
2023/10/03 06:36:06;;;;;;;;;;;;;;;16.64;80.62;100936.80;106020;1259;124847;-81
2023/10/03 06:38:33;;;;;;;;;;;;;;;16.71;80.58;100932.20;106293;1258;59542;-83
2023/10/03 06:41:00;;;;;;;;;;;;;;;16.78;80.55;100927.63;106262;1259;125210;-82
2023/10/03 06:43:26;;;;;;;;;;;;;;;16.86;80.41;100927.32;106288;1259;73393;-83
2023/10/03 06:45:53;;;;;;;;;;;;;;;16.92;80.18;100925.38;106359;1259;66021;-83
2023/10/03 06:48:21;;;;;;;;;;;;;;;16.96;80.01;100925.73;106184;1263;124902;-82
2023/10/03 06:50:48;;;;;;;;;;;;;;;17.00;79.92;100918.29;106148;1260;61379;-83
2023/10/03 06:53:17;;;;;;;;;;;;;;;17.06;79.84;100912.63;106151;1263;124910;-83
2023/10/03 06:55:44;;;;;;;;;;;;;;;17.12;79.73;100909.98;106246;1260;74850;-82
2023/10/03 06:58:11;;;;;;;;;;;;;;;17.18;79.62;100898.27;106294;1261;66285;-82
2023/10/03 07:00:38;;;;;;;;;;;;;;;17.24;79.54;100898.27;106104;1264;124713;-83
2023/10/03 07:03:04;;;;;;;;;;;;;;;17.31;79.51;100894.02;106182;1259;61290;-83
2023/10/03 07:05:32;;;;;;;;;;;;;;;17.38;79.47;100888.51;106149;1259;125087;-83
2023/10/03 07:07:59;;;;;;;;;;;;;;;17.45;79.40;100882.65;106134;1261;74717;-83
2023/10/03 07:10:26;;;;;;;;;;;;;;;17.53;79.29;100880.16;106276;1259;66124;-81
2023/10/03 07:12:53;;;;;;;;;;;;;;;17.60;79.20;100874.29;106222;1259;125471;-82
2023/10/03 07:15:19;;;;;;;;;;;;;;;17.67;79.09;100869.30;106382;1259;61216;-81
2023/10/03 07:17:46;;;;;;;;;;;;;;;17.74;78.97;100865.20;106248;1264;125276;-81
2023/10/03 07:20:13;;;;;;;;;;;;;;;17.80;78.90;100863.95;106397;1260;74728;-81
2023/10/03 07:22:40;;;;;;;;;;;;;;;17.88;78.80;100857.56;106412;1259;66290;-82
2023/10/03 07:25:09;;;;;;;;;;;;;;;17.94;78.59;100851.51;106167;1263;124937;-81
2023/10/03 07:27:36;;;;;;;;;;;;;;;18.00;78.56;100846.16;106197;1265;61347;-81
2023/10/03 07:30:03;;;;;;;;;;;;;;;18.06;78.46;100838.14;106165;1259;126326;-81
2023/10/03 07:32:31;;;;;;;;;;;;;;;18.11;78.30;100835.98;106090;1262;74493;-82
2023/10/03 07:34:57;;;;;;;;;;;;;;;18.17;78.26;100829.21;106107;1259;124924;-81
2023/10/03 07:37:24;;;;;;;;;;;;;;;18.24;78.20;100826.34;106317;1259;72790;-81
2023/10/03 07:39:51;;;;;;;;;;;;;;;18.31;78.19;100825.23;106331;1261;61472;-81
2023/10/03 07:42:19;;;;;;;;;;;;;;;18.39;78.06;100821.98;106102;1258;124849;-81
2023/10/03 07:44:45;;;;;;;;;;;;;;;18.48;78.03;100821.22;106245;1259;74784;-82
2023/10/03 07:47:13;;;;;;;;;;;;;;;18.58;77.91;100820.44;106232;1263;124956;-81
2023/10/03 07:49:42;;;;;;;;;;;;;;;18.67;77.91;100810.60;106179;1260;71858;-81
2023/10/03 07:52:08;;;;;;;;;;;;;;;18.77;77.74;100808.39;106333;1258;59623;-81
2023/10/03 07:54:37;;;;;;;;;;;;;;;18.87;77.50;100802.48;106149;1262;124820;-81
2023/10/03 07:57:06;;;;;;;;;;;;;;;18.96;77.27;100797.42;106333;1259;74392;-81
2023/10/03 07:59:33;;;;;;;;;;;;;;;19.06;77.09;100791.10;106299;1259;124737;-81
2023/10/03 08:02:10;;;;;;;;;;;;;;;19.17;77.00;100786.92;106199;1260;72715;-81
2023/10/03 08:04:37;;;;;;;;;;;;;;;19.28;76.69;100777.73;106168;1259;61491;-82
2023/10/03 08:07:04;;;;;;;;;;;;;;;19.38;76.49;100775.66;106121;1259;124070;-82
2023/10/03 08:09:31;;;;;;;;;;;;;;;19.48;76.40;100765.95;106185;1265;74790;-82
2023/10/03 08:11:58;;;;;;;;;;;;;;;19.59;76.17;100762.25;106116;1259;125190;-82
2023/10/03 08:14:24;;;;;;;;;;;;;;;19.70;75.92;100759.64;106288;1260;72718;-82
2023/10/03 08:16:56;;;;;;;;;;;;;;;19.83;75.95;100757.02;106422;1264;61251;-82
2023/10/03 08:19:25;;;;;;;;;;;;;;;19.96;75.71;100755.77;106405;1258;61193;-82
2023/10/03 08:21:54;;;;;;;;;;;;;;;20.09;75.61;100756.83;106518;1260;73635;-81
2023/10/03 08:24:28;;;;;;;;;;;;;;;20.24;75.41;100749.84;106245;1259;125165;-81
2023/10/03 08:26:58;;;;;;;;;;;;;;;20.39;75.22;100743.73;106293;1263;71886;-81
2023/10/03 08:29:25;;;;;;;;;;;;;;;20.54;75.03;100736.20;106198;1261;124580;-81
2023/10/03 08:31:58;;;;;;;;;;;;;;;20.67;74.67;100731.73;106326;1258;61206;-81
2023/10/03 08:34:25;;;;;;;;;;;;;;;20.76;74.45;100728.17;106308;1259;74669;-81
2023/10/03 08:36:54;;;;;;;;;;;;;;;20.84;74.02;100725.55;106252;1259;124115;-82
2023/10/03 08:39:22;;;;;;;;;;;;;;;20.89;73.75;100723.31;106398;1260;71989;-81
2023/10/03 08:41:57;;;;;;;;;;;;;;;20.94;73.46;100725.52;106185;1263;124910;-82
2023/10/03 08:44:24;;;;;;;;;;;;;;;21.01;73.30;100719.70;106372;1258;61202;-82
2023/10/03 08:46:57;;;;;;;;;;;;;;;21.07;72.83;100711.58;106292;1258;74742;-81
2023/10/03 08:49:26;;;;;;;;;;;;;;;21.10;72.57;100703.48;106333;1259;66536;-82
2023/10/03 08:51:53;;;;;;;;;;;;;;;21.16;72.22;100696.95;106221;1263;72767;-81
2023/10/03 08:54:20;;;;;;;;;;;;;;;21.22;72.04;100687.71;106287;1261;124821;-83
2023/10/03 08:56:46;;;;;;;;;;;;;;;21.30;71.81;100687.39;106380;1259;61134;-81
2023/10/03 08:59:15;;;;;;;;;;;;;;;21.38;71.48;100681.67;106140;1259;125359;-81
2023/10/03 09:01:46;;;;;;;;;;;;;;;21.45;71.13;100676.93;106365;1260;66308;-83
2023/10/03 09:04:18;;;;;;;;;;;;;;;21.52;70.95;100672.50;106071;1262;71321;-82
2023/10/03 09:06:45;;;;;;;;;;;;;;;21.63;70.81;100666.73;106092;1259;124727;-83
2023/10/03 09:09:16;;;;;;;;;;;;;;;21.80;70.57;100654.18;106287;1261;61263;-81
2023/10/03 09:11:44;;;;;;;;;;;;;;;22.00;70.20;100648.38;106230;1260;124102;-81
2023/10/03 09:14:12;;;;;;;;;;;;;;;22.23;69.86;100644.08;106266;1260;64746;-81
2023/10/03 09:16:39;;;;;;;;;;;;;;;22.46;69.67;100631.02;106248;1263;72541;-82
2023/10/03 09:19:09;;;;;;;;;;;;;;;22.65;69.00;100618.15;106100;1260;183524;-83
2023/10/03 09:21:36;;;;;;;;;;;;;;;22.82;68.60;100601.77;106268;1260;61208;-82
2023/10/03 09:24:09;;;;;;;;;;;;;;;22.92;67.95;100586.27;106198;1263;124469;-81
2023/10/03 09:26:45;;;;;;;;;;;;;;;23.00;67.49;100577.09;106196;1263;64402;-82
2023/10/03 09:29:18;;;;;;;;;;;;;;;23.13;67.07;100571.91;106158;1260;124560;-80
2023/10/03 09:31:46;;;;;;;;;;;;;;;23.25;66.62;100566.70;107427;1259;61260;-81
2023/10/03 09:34:14;;;;;;;;;;;;;;;23.33;66.01;100566.84;106396;1259;61146;-81
2023/10/03 09:36:41;;;;;;;;;;;;;;;23.39;65.57;100565.75;106145;1259;124826;-81
2023/10/03 09:39:20;;;;;;;;;;;;;;;23.49;65.22;100565.81;106413;1259;66295;-81
2023/10/03 09:41:57;;;;;;;;;;;;;;;23.61;64.75;100579.05;106081;1261;124961;-81
2023/10/03 09:44:32;;;;;;;;;;;;;;;23.70;64.09;100579.83;106239;1260;61392;-81
2023/10/03 09:47:06;;;;;;;;;;;;;;;23.80;64.01;100574.33;106128;1259;124392;-81
2023/10/03 09:49:39;;;;;;;;;;;;;;;23.91;63.74;100553.90;107294;1259;73437;-82
2023/10/03 09:52:08;;;;;;;;;;;;;;;24.00;63.30;100550.55;106234;1259;64965;-81
2023/10/03 09:54:35;;;;;;;;;;;;;;;24.09;63.12;100550.96;106199;1259;125380;-81
2023/10/03 09:57:15;;;;;;;;;;;;;;;24.19;62.69;100543.80;106165;1260;61264;-81
2023/10/03 09:59:45;;;;;;;;;;;;;;;24.29;62.48;100545.44;106154;1259;124299;-82
2023/10/03 10:02:16;;;;;;;;;;;;;;;24.31;61.99;100544.14;106241;1259;73650;-82
2023/10/03 10:04:43;;;;;;;;;;;;;;;24.33;61.73;100534.36;106243;1262;66345;-83
2023/10/03 10:07:29;;;;;;;;;;;;;;;24.40;61.44;100518.14;106208;1259;124247;-82
2023/10/03 10:10:07;;;;;;;;;;;;;;;24.52;61.15;100515.77;106305;1260;61360;-83
2023/10/03 10:12:37;;;;;;;;;;;;;;;24.60;60.72;100510.81;107906;1259;124134;-81
2023/10/03 10:17:46;;;;;;;;;;;;;;;24.72;59.97;100500.52;106177;1258;124453;-82
2023/10/03 10:20:59;;;;;;;;;;;;;;;24.74;59.60;100493.61;106278;1263;71412;-82
2023/10/03 10:25:43;;;;;;;;;;;;;;;24.75;58.98;100470.80;106252;1258;61100;-82
2023/10/03 10:28:10;;;;;;;;;;;;;;;24.75;58.62;100467.00;106332;1259;66126;-82
2023/10/03 10:30:38;;;;;;;;;;;;;;;24.75;58.38;100467.20;106201;1263;124083;-81
2023/10/03 10:33:23;;;;;;;;;;;;;;;24.75;58.24;100458.23;106102;1260;71742;-81
2023/10/03 10:35:50;;;;;;;;;;;;;;;24.73;57.94;100453.29;106019;1260;124337;-81
2023/10/03 10:38:17;;;;;;;;;;;;;;;24.69;58.00;100451.63;106174;1261;61259;-81
2023/10/03 10:41:05;;;;;;;;;;;;;;;24.67;57.77;100446.54;106212;1264;73906;-81
2023/10/03 10:43:34;;;;;;;;;;;;;;;24.66;57.38;100439.20;106036;1259;64959;-81
2023/10/03 10:46:20;;;;;;;;;;;;;;;24.69;57.28;100431.02;106213;1259;72749;-81
2023/10/03 10:48:49;;;;;;;;;;;;;;;24.74;57.23;100422.91;106096;1261;124072;-82
2023/10/03 10:51:16;;;;;;;;;;;;;;;24.82;57.03;100409.85;106376;1259;61176;-82
2023/10/03 10:53:43;;;;;;;;;;;;;;;24.90;56.80;100404.67;106209;1259;126621;-82
2023/10/03 10:56:10;;;;;;;;;;;;;;;24.95;56.47;100399.81;106447;1259;66062;-82
2023/10/03 10:58:50;;;;;;;;;;;;;;;25.00;56.38;100391.37;106327;1259;72504;-82
2023/10/03 11:01:19;;;;;;;;;;;;;;;25.06;56.21;100380.73;106059;1265;124401;-82
2023/10/03 11:03:46;;;;;;;;;;;;;;;25.11;55.98;100378.91;106399;1261;61305;-82
2023/10/03 11:06:13;;;;;;;;;;;;;;;25.13;55.88;100383.29;106205;1260;124286;-83
2023/10/03 11:08:47;;;;;;;;;;;;;;;25.15;55.82;100373.91;106276;1259;66282;-82
2023/10/03 11:11:14;;;;;;;;;;;;;;;25.19;55.66;100360.63;106221;1259;125046;-83
2023/10/03 11:13:45;;;;;;;;;;;;;;;25.22;55.52;100355.83;106264;1258;59221;-83
2023/10/03 11:16:13;;;;;;;;;;;;;;;25.21;55.19;100354.95;106173;1265;61217;-83
2023/10/03 11:18:40;;;;;;;;;;;;;;;25.17;55.18;100352.98;105997;1259;125378;-83
2023/10/03 11:21:08;;;;;;;;;;;;;;;25.09;54.85;100341.98;106273;1264;66284;-82
2023/10/03 11:23:35;;;;;;;;;;;;;;;25.01;54.90;100333.34;106231;1258;124549;-83
2023/10/03 11:26:03;;;;;;;;;;;;;;;24.95;54.77;100331.42;106365;1259;61397;-82
2023/10/03 11:28:33;;;;;;;;;;;;;;;24.95;54.70;100326.77;106315;1259;59684;-82
2023/10/03 11:31:03;;;;;;;;;;;;;;;24.96;54.63;100316.48;106358;1259;124112;-82
2023/10/03 11:33:51;;;;;;;;;;;;;;;25.00;54.55;100304.48;106139;1259;65022;-82
2023/10/03 11:36:17;;;;;;;;;;;;;;;25.07;54.40;100300.41;106226;1261;124202;-82
2023/10/03 11:38:48;;;;;;;;;;;;;;;25.10;54.20;100297.09;106299;1260;59306;-82
2023/10/03 11:41:33;;;;;;;;;;;;;;;25.12;54.14;100300.93;106129;1259;124223;-84
2023/10/03 11:44:00;;;;;;;;;;;;;;;25.18;54.10;100294.02;106336;1263;73581;-83
2023/10/03 11:46:34;;;;;;;;;;;;;;;25.27;54.03;100293.31;106394;1263;67189;-83
2023/10/03 11:49:01;;;;;;;;;;;;;;;25.32;53.77;100286.99;106197;1259;124190;-82
2023/10/03 11:51:29;;;;;;;;;;;;;;;25.36;53.56;100287.52;106304;1259;61254;-82
2023/10/03 11:53:55;;;;;;;;;;;;;;;25.38;53.58;100289.92;106189;1259;124403;-84
2023/10/03 11:56:22;;;;;;;;;;;;;;;25.40;53.30;100286.45;106274;1259;73380;-83
2023/10/03 11:58:50;;;;;;;;;;;;;;;25.40;53.18;100281.60;106211;1259;66240;-84
2023/10/03 12:01:17;;;;;;;;;;;;;;;25.41;53.14;100278.52;106061;1259;124168;-82
2023/10/03 12:03:44;;;;;;;;;;;;;;;25.39;53.08;100266.36;106338;1259;61286;-82
2023/10/03 12:06:10;;;;;;;;;;;;;;;25.40;52.98;100266.34;106160;1259;124233;-82
2023/10/03 12:08:40;;;;;;;;;;;;;;;25.42;52.86;100266.61;106277;1259;74757;-82
2023/10/03 12:11:07;;;;;;;;;;;;;;;25.46;52.84;100258.70;106156;1264;124253;-82
2023/10/03 12:13:34;;;;;;;;;;;;;;;25.49;52.79;100250.33;106305;1259;72630;-82
2023/10/03 12:16:04;;;;;;;;;;;;;;;25.54;52.74;100238.95;106307;1259;59683;-82
2023/10/03 12:18:31;;;;;;;;;;;;;;;25.60;52.58;100232.58;106190;1259;124133;-82
2023/10/03 12:20:58;;;;;;;;;;;;;;;25.66;52.60;100233.39;106110;1260;74486;-82
2023/10/03 12:23:25;;;;;;;;;;;;;;;25.70;52.50;100226.89;106160;1264;124189;-82
2023/10/03 12:25:51;;;;;;;;;;;;;;;25.74;52.34;100221.89;106314;1261;72605;-82
2023/10/03 12:28:18;;;;;;;;;;;;;;;25.75;52.11;100219.47;106234;1264;61309;-82
2023/10/03 12:30:44;;;;;;;;;;;;;;;25.79;52.02;100216.44;105896;1264;124357;-82
2023/10/03 12:33:16;;;;;;;;;;;;;;;25.84;51.79;100214.42;106172;1263;73108;-82
2023/10/03 12:35:43;;;;;;;;;;;;;;;25.93;51.73;100212.20;106113;1260;124281;-83
2023/10/03 12:38:11;;;;;;;;;;;;;;;26.00;51.38;100208.08;106236;1262;64075;-82
2023/10/03 12:40:37;;;;;;;;;;;;;;;26.07;51.37;100205.45;106325;1264;61257;-82